Pays
Station

 

Conditions  météo  pour  State College  -  Etats-Unis    Etats-Unis

  
16 °C
    
 
 

METAR pour State College :

KUNV 251253Z 20007KT 7SM BR OVC011 16/14 A3019

 

Voici le bulletin pour State College - Etats-Unis.
 
Le bulletin a été fait il y a 34 minutes, à 12:53 UTC .
Le vent soufflait à la vitesse de 3.6 mètres par seconde de Sud/Sud-ouest (200°).
 
La température était de 16 °C, avec un point de rosée à 14 °C.
La pression atmosphérique était de 1022 hPa.
L'humidité relative était de 87.9%.
 
Le ciel était nuageux à partir d'une hauteur de 335 mètres
 
La visibilité globale était de 11.3 kilomètres.
 
Actuellement brume.

 
 
 

Pays :   A   B   C   D   E   F   G   H   I   J   K   L   M   N   O   P   Q   R   S   T   U   V   W   Y   Z

 

Partenaires :  Info Météo avec Met'info
Météo Marine avec MeteoMarine.net
Infos Site  |  Infos Légales  |  Crédits  |  Confidentialité
Contactez-nous  |  Ajouter aux favoris
© 2013-2020 METAR - Tous droits réservés